Search for airport 
image banner adimage banner adimage banner ad
image banner ad

27IA - Oldfield Aero

Located in Keosauqua, United States

ICAO - 27IA, IATA -

Data provided by Airmate  

General information

Coordinates: N40°45'5" W92°1'51"
Elevation is 750 feet MSL.
 
View others Airports in Iowa

Operational data

Special qualification required
Current time UTC:
Current local time:
Weather at : KFFL - Fairfield Muni ( 34 km )
METAR: KFFL 150935Z AUTO 00000KT 10SM CLR 16/16 A3007 RMK A01
View NOTAMs / SUP AIP / TFR affecting this airport [VIEW]
Communications frequencies: [VIEW]

Runways:

RWY identifierQFULength (ft)Width (ft)SurfaceLDA (ft)
0883°180060GRASS
26263°180060GRASS

Airport contact information

Address: Keosauqua United States

Satellite view of 27IA